Terminal Aerodrome Forecast
Issued by NWS Tulsa, OK

Home | Current Version | Previous Version | Text Only | Print | Product List | Glossary On
Versions: 1 2 3 4 5 6 7 8 9 10 11 12 13 14 15 16 17 18
000
FTPQ31 PGUM 290150 AAB
TAFTSA
TAF AMD
PTSA 290150Z 2902/2924 05011KT P6SM VCTS BKN012CB OVC110
      TEMPO 2902/2905 2SM +SHRA OVC010
     FM290800 07010KT P6SM VCSH SCT017 SCT030 BKN130=

USA.gov is the U.S. government's official web portal to all federal, state and local government web resources and services.